Plainville, New York
Current Conditions -  °F | °C
As of 9:54 AM on Sunday 23 Nov 2014 (Local Time) from KFZY Reporting Station
Overcast Overcast  
Wind Chill: 43°   Ceiling: 3300
Heat Index: 46°   Visibility: 10mi
Dew Point: 38°   Wind: 6mph
Humidity: 73%   Direction: 170°S
Pressure: 30.06"   Gusts: NA
Location:  43.16°N, 76.45°W
Report Text: KFZY 231454Z AUTO 17005KT 10SM BKN033 OVC060 08/03 A3006 RMK AO2 SLP182 T00780033 50006
Loading
Personal Weather Stations






























Interactive Weather Map New forecast layout! Learn more

10-Day Weather Forecast

Advertisements
Track Severe Weather on mobile